Westrac — WTH4325 — position and weather

sailwx.info

Track history (hours):
 
Tides and Currents Weather Stations Pressure Air Temp Water Temp Dewpoint Dewpoint Depression Visibility Wind Speed Wind Dir Waves Ship Positions

Westrac

More information available from US FCC via Universal Licensing System and Coast Guard Vessel Documentation Center.

Last reported at 2014-Jul-24 22:28 UTC. Time now 2014-Jul-25 13:52 UTC.
Position N 47°34' W 122°21'.

Length 23 m; draft 5 m.

Type: Tug. MMSI: 366993010.

Date/timePositionNaut miles runAvg speedWind from/ knotsBaromVisibWave heightAir tempDewpointWater temp
2014-Jul-24 22:28N 47°34' W 122°21'0 2.8
2014-Jul-24 22:26N 47°34' W 122°21'1 1.4
2014-Jul-24 21:33N 47°35' W 122°21'0 0.2
2014-Jul-24 21:31N 47°35' W 122°21'4 4.3
2014-Jul-24 20:33N 47°38' W 122°25'110.4
2014-Jul-24 20:30N 47°39' W 122°26'2 2.4
2014-Jul-24 19:33N 47°40' W 122°23'0 7.8
2014-Jul-24 19:30N 47°40' W 122°23'1 0.6
2014-Jul-24 18:33N 47°39' W 122°22'0 0.0
2014-Jul-24 18:30N 47°39' W 122°22'1 1.4
2014-Jul-24 17:33N 47°40' W 122°24'0 1.8
2014-Jul-24 17:30N 47°40' W 122°24'0 0.2
2014-Jul-24 16:33N 47°40' W 122°24'0 0.0
2014-Jul-24 16:30N 47°40' W 122°24'3 2.9
2014-Jul-24 15:33N 47°37' W 122°23'3 6.4
2014-Jul-24 15:07N 47°35' W 122°20'0 0.0
2014-Jul-24 14:33N 47°35' W 122°20'0 0.1
2014-Jul-24 14:28N 47°35' W 122°20'1 0.1
2014-Jul-24 01:05N 47°34' W 122°21'0 0.0
2014-Jul-24 01:05N 47°34' W 122°21'0 0.5
2014-Jul-24 00:33N 47°34' W 122°21'0 6.1
2014-Jul-24 00:30N 47°34' W 122°21'1 1.3
2014-Jul-23 23:33N 47°33' W 122°20'0 6.1
2014-Jul-23 23:30N 47°33' W 122°21'3 2.9
2014-Jul-23 22:33N 47°36' W 122°22'0 0.6
2014-Jul-23 21:58N 47°36' W 122°22'0 0.4
2014-Jul-23 21:33N 47°35' W 122°22'0 0.0
2014-Jul-23 21:33N 47°35' W 122°22'0 0.5
2014-Jul-23 20:33N 47°36' W 122°22'0 0.4
2014-Jul-23 20:33N 47°36' W 122°22'0 0.5
2014-Jul-23 19:33N 47°35' W 122°22'0 0.0
2014-Jul-23 19:32N 47°35' W 122°22'2 1.7
2014-Jul-23 18:33N 47°34' W 122°21'0 0.2
2014-Jul-23 18:27N 47°34' W 122°21'0 0.0
2014-Jul-23 17:32N 47°34' W 122°21'0 0.0
2014-Jul-23 16:31N 47°34' W 122°21'0 0.0
2014-Jul-23 16:31N 47°34' W 122°21'0 0.0
2014-Jul-23 15:33N 47°34' W 122°21'0 0.0
2014-Jul-23 14:33N 47°34' W 122°21'0 0.1
2014-Jul-23 14:25N 47°34' W 122°21'1 1.1
2014-Jul-23 13:33N 47°33' W 122°21'0 0.1
2014-Jul-23 13:31N 47°33' W 122°21'1 1.0
2014-Jul-23 12:33N 47°34' W 122°21'0 0.0
2014-Jul-23 12:31N 47°34' W 122°21'0 0.0
2014-Jul-23 11:33N 47°34' W 122°21'0 0.0
2014-Jul-23 11:31N 47°34' W 122°21'0 0.0
2014-Jul-23 10:33N 47°34' W 122°21'0 0.1
2014-Jul-23 10:30N 47°34' W 122°21'0 0.0
2014-Jul-23 09:33N 47°34' W 122°21'0 0.0
2014-Jul-23 09:30N 47°34' W 122°21'0 0.0
2014-Jul-23 08:33N 47°34' W 122°21'0 0.0
2014-Jul-23 08:30N 47°34' W 122°21'0 0.0
2014-Jul-23 07:33N 47°34' W 122°21'0 0.1
2014-Jul-23 07:30N 47°34' W 122°21'0 0.0
2014-Jul-23 06:33N 47°34' W 122°21'0 0.0
2014-Jul-23 06:30N 47°34' W 122°21'0 0.0
2014-Jul-23 05:44N 47°34' W 122°21'0 0.0
2014-Jul-23 05:33N 47°34' W 122°21'0 0.1
2014-Jul-23 04:34N 47°34' W 122°21'0 9.0
2014-Jul-23 04:33N 47°34' W 122°21'1 0.8
2014-Jul-23 03:33N 47°33' W 122°20'0 0.5
2014-Jul-23 03:29N 47°33' W 122°21'2 2.4
2014-Jul-23 02:34N 47°35' W 122°21'0 0.0
2014-Jul-23 02:33N 47°35' W 122°21'3 2.6
2014-Jul-23 01:33N 47°33' W 122°20'0 0.0
2014-Jul-23 01:33N 47°33' W 122°20'0 0.4
2014-Jul-23 00:33N 47°33' W 122°20'0 1.5
2014-Jul-23 00:27N 47°33' W 122°21'2 1.7
2014-Jul-22 23:33N 47°35' W 122°22'1 2.9
2014-Jul-22 23:15N 47°35' W 122°22'1 1.6
2014-Jul-22 22:33N 47°35' W 122°21'0 0.0
2014-Jul-22 22:31N 47°35' W 122°21'0 0.0
2014-Jul-22 21:33N 47°35' W 122°21'0 7.4
2014-Jul-22 21:30N 47°35' W 122°21'2 1.7
2014-Jul-22 20:33N 47°34' W 122°21'0 7.9
2014-Jul-22 20:30N 47°33' W 122°21'0 0.3
2014-Jul-22 19:33N 47°33' W 122°21'0 0.0
2014-Jul-22 19:30N 47°33' W 122°21'1 1.1
2014-Jul-22 18:33N 47°34' W 122°21'0 0.0
2014-Jul-22 18:30N 47°34' W 122°21'0 0.0
2014-Jul-22 17:32N 47°34' W 122°21'0 0.0
2014-Jul-22 17:13N 47°34' W 122°21'0 0.0
2014-Jul-22 16:18N 47°34' W 122°21'0 0.0
2014-Jul-22 16:12N 47°34' W 122°21'0 0.0
2014-Jul-22 15:28N 47°34' W 122°21'0 0.0
2014-Jul-22 15:22N 47°34' W 122°21'4 4.8
2014-Jul-22 14:34N 47°38' W 122°23'0 0.0
2014-Jul-22 14:33N 47°38' W 122°23'4 3.6
2014-Jul-22 13:30N 47°34' W 122°21'0 0.0
2014-Jul-22 13:22N 47°34' W 122°21'0 0.0
2014-Jul-22 12:33N 47°34' W 122°21'0 0.0
2014-Jul-22 12:28N 47°34' W 122°21'1 1.1
2014-Jul-22 11:33N 47°33' W 122°21'0 0.0
2014-Jul-22 11:32N 47°33' W 122°21'0 0.2
2014-Jul-22 10:33N 47°33' W 122°21'0 0.0
2014-Jul-22 10:07N 47°33' W 122°21'0 0.0
2014-Jul-22 09:30N 47°33' W 122°21'0 0.0
2014-Jul-22 09:22N 47°33' W 122°21'0 0.0
2014-Jul-22 08:27N 47°33' W 122°21'0 0.1
2014-Jul-22 08:17N 47°33' W 122°21'0 0.0
2014-Jul-22 07:33N 47°33' W 122°21'0 0.0
2014-Jul-22 07:30N 47°33' W 122°21'0 0.0
2014-Jul-22 06:33N 47°33' W 122°21'1 1.4
2014-Jul-22 05:33N 47°35' W 122°22'0 5.5
2014-Jul-22 05:29N 47°35' W 122°22'1 0.1
2014-Jul-21 18:09N 47°34' W 122°21'0 1.2
2014-Jul-21 18:06N 47°34' W 122°21'0 0.2
2014-Jul-21 17:33N 47°34' W 122°21'0 3.3
2014-Jul-21 17:31N 47°34' W 122°21'4 4.2
2014-Jul-21 16:33N 47°35' W 122°27'0 8.1
2014-Jul-21 16:30N 47°35' W 122°27'0 0.1
2014-Jul-21 15:33N 47°35' W 122°27'1 9.8
2014-Jul-21 15:29N 47°35' W 122°26'4 4.7
2014-Jul-21 14:33N 47°33' W 122°20'0 4.9
2014-Jul-21 14:30N 47°33' W 122°21'1 0.9
2014-Jul-21 13:33N 47°34' W 122°21'0 0.0
2014-Jul-21 13:29N 47°34' W 122°21'0 0.0
2014-Jul-21 12:33N 47°34' W 122°21'0 0.0
2014-Jul-21 12:30N 47°34' W 122°21'0 0.0
2014-Jul-21 11:33N 47°34' W 122°21'0 0.1
2014-Jul-21 11:28N 47°34' W 122°21'0 0.0
2014-Jul-21 10:33N 47°34' W 122°21'0 0.0
2014-Jul-21 09:33N 47°34' W 122°21'0 0.0
2014-Jul-21 08:47N 47°34' W 122°21'0 0.0
2014-Jul-21 08:33N 47°34' W 122°21'0 0.0
2014-Jul-21 07:57N 47°34' W 122°21'0 0.0
2014-Jul-21 07:33N 47°34' W 122°21'0 0.1
2014-Jul-21 07:31N 47°34' W 122°21'0 0.0
2014-Jul-21 06:31N 47°34' W 122°21'0 0.1
2014-Jul-21 06:28N 47°34' W 122°21'1 1.2
2014-Jul-21 05:43N 47°33' W 122°21'0 0.2
2014-Jul-21 05:33N 47°33' W 122°21'4 4.0
2014-Jul-21 04:33N 47°36' W 122°25'1 7.1
2014-Jul-21 04:23N 47°35' W 122°27'3 3.3
2014-Jul-21 03:33N 47°34' W 122°30'110.1
2014-Jul-21 03:27N 47°34' W 122°29'5 0.2
2014-Jul-20 00:42N 47°34' W 122°21'1 5.9
2014-Jul-20 00:33N 47°35' W 122°22'0 8.6
2014-Jul-20 00:32N 47°35' W 122°22'1 1.1
2014-Jul-19 23:33N 47°34' W 122°21'0 2.9
2014-Jul-19 23:32N 47°34' W 122°21'2 1.6
2014-Jul-19 22:33N 47°35' W 122°22'0 9.2
2014-Jul-19 22:32N 47°35' W 122°22'1 1.5
2014-Jul-19 21:33N 47°34' W 122°21'0 4.2
2014-Jul-19 21:32N 47°34' W 122°21'2 1.9
2014-Jul-19 20:33N 47°32' W 122°20'0 4.3
2014-Jul-19 20:32N 47°32' W 122°20'3 3.2
2014-Jul-19 19:33N 47°35' W 122°22'0 5.9
2014-Jul-19 19:31N 47°35' W 122°22'2 2.5
2014-Jul-19 18:33N 47°33' W 122°20'0 0.0
2014-Jul-19 18:32N 47°33' W 122°20'0 0.4
2014-Jul-19 17:33N 47°33' W 122°20'0 0.2
2014-Jul-19 17:32N 47°33' W 122°20'2 2.5
2014-Jul-19 16:33N 47°35' W 122°21'0 0.0
2014-Jul-19 16:31N 47°35' W 122°21'1 1.3
2014-Jul-19 15:33N 47°34' W 122°21'0 0.0
2014-Jul-19 15:31N 47°34' W 122°21'0 0.0
2014-Jul-19 14:33N 47°34' W 122°21'0 0.0
2014-Jul-19 14:25N 47°34' W 122°21'0 0.0
2014-Jul-19 13:33N 47°34' W 122°21'0 0.2
2014-Jul-19 13:31N 47°34' W 122°21'0 0.0
2014-Jul-19 12:33N 47°34' W 122°21'0 0.0
2014-Jul-19 12:26N 47°34' W 122°21'0 0.0
2014-Jul-19 11:33N 47°34' W 122°21'0 0.0
2014-Jul-19 11:26N 47°34' W 122°21'0 0.0
2014-Jul-19 10:33N 47°34' W 122°21'0 0.1
2014-Jul-19 10:30N 47°34' W 122°21'0 0.0
2014-Jul-19 09:34N 47°34' W 122°21'0 0.1
2014-Jul-19 09:30N 47°34' W 122°21'0 0.0
2014-Jul-19 08:33N 47°34' W 122°21'0 0.1
2014-Jul-19 08:30N 47°34' W 122°21'0 0.0
2014-Jul-19 07:33N 47°34' W 122°21'0 0.1
2014-Jul-19 07:30N 47°34' W 122°21'1 1.0
2014-Jul-19 06:33N 47°35' W 122°22'0 0.9
2014-Jul-19 06:30N 47°35' W 122°22'2 2.4
2014-Jul-19 05:40N 47°33' W 122°20'0 0.5
2014-Jul-19 05:33N 47°33' W 122°20'2 1.9
2014-Jul-19 04:33N 47°35' W 122°22'0 5.1
2014-Jul-19 04:30N 47°35' W 122°22'2 2.6
2014-Jul-19 03:33N 47°33' W 122°20'1 9.8
2014-Jul-19 03:30N 47°33' W 122°21'1 0.8
2014-Jul-19 02:34N 47°33' W 122°20'0 0.7
2014-Jul-19 02:30N 47°33' W 122°20'1 0.7
2014-Jul-19 01:33N 47°33' W 122°21'0 6.3
2014-Jul-19 01:30N 47°34' W 122°21'0 0.5
2014-Jul-19 00:33N 47°33' W 122°20'0 0.0
2014-Jul-19 00:30N 47°33' W 122°20'1 1.1
2014-Jul-18 23:34N 47°34' W 122°21'0 0.1
2014-Jul-18 23:30N 47°34' W 122°21'0 0.0
2014-Jul-18 22:33N 47°34' W 122°21'0 0.1
2014-Jul-18 22:30N 47°34' W 122°21'0 0.0
2014-Jul-18 21:33N 47°34' W 122°21'0 0.0
2014-Jul-18 21:29N 47°34' W 122°21'0 0.0
2014-Jul-18 20:33N 47°34' W 122°21'0 0.0
2014-Jul-18 20:13N 47°34' W 122°21'1 1.5
2014-Jul-18 19:33N 47°33' W 122°21'0 0.1
2014-Jul-18 19:28N 47°33' W 122°21'2 2.5
2014-Jul-18 18:33N 47°35' W 122°21'0 0.0
2014-Jul-18 18:33N 47°35' W 122°21'1 0.6
2014-Jul-18 17:34N 47°35' W 122°22'0 0.0
2014-Jul-18 17:33N 47°35' W 122°22'0 0.0
2014-Jul-18 16:33N 47°35' W 122°22'0 0.0
2014-Jul-18 16:33N 47°35' W 122°22'2 2.4
2014-Jul-18 15:33N 47°33' W 122°21'0 0.1
2014-Jul-18 15:28N 47°33' W 122°21'2 2.4
2014-Jul-18 14:34N 47°35' W 122°21'1 0.1
2014-Jul-17 23:46N 47°34' W 122°21'1 5.3
2014-Jul-17 23:33N 47°33' W 122°20'0 0.2
2014-Jul-17 23:31N 47°33' W 122°20'0 0.0
2014-Jul-17 22:33N 47°33' W 122°20'0 0.0
2014-Jul-17 22:31N 47°33' W 122°20'1 0.6
2014-Jul-17 21:34N 47°34' W 122°21'0 7.4
2014-Jul-17 21:30N 47°34' W 122°21'2 2.3
2014-Jul-17 20:33N 47°36' W 122°23'0 8.4
2014-Jul-17 20:31N 47°36' W 122°22'2 1.9
2014-Jul-17 19:33N 47°34' W 122°21'0 0.0
2014-Jul-17 18:33N 47°34' W 122°21'0 0.3
2014-Jul-17 18:05N 47°34' W 122°21'1 1.4
2014-Jul-17 17:33N 47°35' W 122°22'0 6.1
2014-Jul-17 17:30N 47°35' W 122°22'6 6.6
2014-Jul-17 16:33N 47°41' W 122°25'0 8.0
2014-Jul-17 16:30N 47°40' W 122°24'2 2.2
2014-Jul-17 15:33N 47°39' W 122°22'0 0.0
2014-Jul-17 15:29N 47°39' W 122°22'3 2.7
2014-Jul-17 14:33N 47°41' W 122°25'1 9.6
2014-Jul-17 14:29N 47°40' W 122°26'7 7.1
2014-Jul-17 13:33N 47°34' W 122°21'0 6.1
2014-Jul-17 13:29N 47°34' W 122°21'0 0.0
2014-Jul-17 02:43N 47°34' W 122°21'1 6.8
2014-Jul-17 02:33N 47°35' W 122°22'0 7.2
2014-Jul-17 02:33N 47°35' W 122°22'2 2.0
2014-Jul-17 01:33N 47°33' W 122°21'0 0.0
2014-Jul-17 01:33N 47°33' W 122°21'3 2.9
2014-Jul-17 00:33N 47°36' W 122°23'0 0.0
2014-Jul-17 00:33N 47°36' W 122°23'2 2.1
2014-Jul-16 23:33N 47°34' W 122°21'0 0.0
2014-Jul-16 23:18N 47°34' W 122°21'1 1.9
2014-Jul-16 22:33N 47°33' W 122°20'0 0.0
2014-Jul-16 22:33N 47°33' W 122°20'0 0.0
2014-Jul-16 21:34N 47°33' W 122°20'0 0.0
2014-Jul-16 21:33N 47°33' W 122°20'0 0.2
2014-Jul-16 20:33N 47°33' W 122°20'0 0.0
2014-Jul-16 20:33N 47°33' W 122°20'0 0.0
2014-Jul-16 19:33N 47°33' W 122°20'0 0.0
2014-Jul-16 19:33N 47°33' W 122°20'1 0.1
2014-Jul-16 04:56N 47°34' W 122°21'0 1.2
2014-Jul-16 04:33N 47°34' W 122°21'0 2.8
2014-Jul-16 04:31N 47°34' W 122°21'0 0.4
2014-Jul-16 03:33N 47°35' W 122°22'0 5.3
2014-Jul-16 03:31N 47°35' W 122°22'0 0.5
2014-Jul-16 02:33N 47°35' W 122°21'0 0.0
2014-Jul-16 02:31N 47°35' W 122°21'2 2.3
2014-Jul-16 01:33N 47°33' W 122°20'0 4.3
2014-Jul-16 01:31N 47°33' W 122°20'1 1.3
2014-Jul-16 00:33N 47°34' W 122°21'0 0.0
2014-Jul-16 00:31N 47°34' W 122°21'0 0.0
2014-Jul-15 23:33N 47°34' W 122°21'0 0.2
2014-Jul-15 23:31N 47°34' W 122°21'1 0.9
2014-Jul-15 22:34N 47°33' W 122°21'0 0.0
2014-Jul-15 22:31N 47°33' W 122°21'1 0.4
2014-Jul-15 20:36N 47°34' W 122°21'011.2
2014-Jul-15 20:33N 47°34' W 122°21'0 8.3
2014-Jul-15 20:31N 47°33' W 122°21'3 2.6
2014-Jul-15 19:33N 47°36' W 122°22'0 2.4
2014-Jul-15 19:31N 47°36' W 122°22'4 3.7
2014-Jul-15 18:33N 47°32' W 122°20'0 1.0
2014-Jul-15 18:25N 47°33' W 122°20'4 5.1
2014-Jul-15 17:33N 47°36' W 122°25'0 6.0
2014-Jul-15 17:30N 47°36' W 122°25'5 5.5
2014-Jul-15 16:33N 47°35' W 122°33'0 7.3
2014-Jul-15 16:30N 47°36' W 122°33'6 6.6
2014-Jul-15 15:33N 47°32' W 122°41'0 0.8
2014-Jul-15 15:30N 47°32' W 122°41'0 0.5
2014-Jul-15 14:34N 47°32' W 122°40'0 0.0
2014-Jul-15 14:20N 47°32' W 122°40'0 0.0
2014-Jul-15 13:33N 47°32' W 122°40'0 0.0
2014-Jul-15 13:25N 47°32' W 122°40'0 0.0
2014-Jul-15 12:33N 47°32' W 122°40'0 0.0
2014-Jul-15 12:20N 47°32' W 122°40'0 0.0
2014-Jul-15 11:33N 47°32' W 122°40'0 0.0
2014-Jul-15 11:20N 47°32' W 122°40'0 0.0
2014-Jul-15 10:33N 47°32' W 122°40'0 0.0
2014-Jul-15 10:30N 47°32' W 122°40'3 3.0
2014-Jul-15 09:33N 47°34' W 122°37'0 9.0
2014-Jul-15 09:30N 47°34' W 122°36'6 6.5
2014-Jul-15 08:35N 47°36' W 122°28'013.1
2014-Jul-15 08:33N 47°37' W 122°28'10 9.6
2014-Jul-15 07:33N 47°46' W 122°27'1 9.0
2014-Jul-15 07:30N 47°47' W 122°27'3 2.9
2014-Jul-15 06:34N 47°44' W 122°26'1 8.1
2014-Jul-15 06:29N 47°44' W 122°26'7 7.9
2014-Jul-15 05:34N 47°37' W 122°23'1 7.4
2014-Jul-15 05:29N 47°36' W 122°23'2 2.7
2014-Jul-15 04:34N 47°34' W 122°21'1 7.0
2014-Jul-15 04:29N 47°34' W 122°21'  
Track history (hours):
 
Tides and Currents Weather Stations Pressure Air Temp Water Temp Dewpoint Dewpoint Depression Visibility Wind Speed Wind Dir Waves Ship Positions

Westrac

More information available from US FCC via Universal Licensing System and Coast Guard Vessel Documentation Center.

Last reported at 2014-Jul-24 22:28 UTC. Time now 2014-Jul-25 13:52 UTC.
Position N 47°34' W 122°21'.

Length 23 m; draft 5 m.

Type: Tug. MMSI: 366993010.

Date/timePositionNaut miles runAvg speedWind from/ knotsBaromVisibWave heightAir tempDewpointWater temp
2014-Jul-24 22:28N 47°34' W 122°21'0 2.8
2014-Jul-24 22:26N 47°34' W 122°21'1 1.4
2014-Jul-24 21:33N 47°35' W 122°21'0 0.2
2014-Jul-24 21:31N 47°35' W 122°21'4 4.3
2014-Jul-24 20:33N 47°38' W 122°25'110.4
2014-Jul-24 20:30N 47°39' W 122°26'2 2.4
2014-Jul-24 19:33N 47°40' W 122°23'0 7.8
2014-Jul-24 19:30N 47°40' W 122°23'1 0.6
2014-Jul-24 18:33N 47°39' W 122°22'0 0.0
2014-Jul-24 18:30N 47°39' W 122°22'1 1.4
2014-Jul-24 17:33N 47°40' W 122°24'0 1.8
2014-Jul-24 17:30N 47°40' W 122°24'0 0.2
2014-Jul-24 16:33N 47°40' W 122°24'0 0.0
2014-Jul-24 16:30N 47°40' W 122°24'3 2.9
2014-Jul-24 15:33N 47°37' W 122°23'3 6.4
2014-Jul-24 15:07N 47°35' W 122°20'0 0.0
2014-Jul-24 14:33N 47°35' W 122°20'0 0.1
2014-Jul-24 14:28N 47°35' W 122°20'1 0.1
2014-Jul-24 01:05N 47°34' W 122°21'0 0.0
2014-Jul-24 01:05N 47°34' W 122°21'0 0.5
2014-Jul-24 00:33N 47°34' W 122°21'0 6.1
2014-Jul-24 00:30N 47°34' W 122°21'1 1.3
2014-Jul-23 23:33N 47°33' W 122°20'0 6.1
2014-Jul-23 23:30N 47°33' W 122°21'3 2.9
2014-Jul-23 22:33N 47°36' W 122°22'0 0.6
2014-Jul-23 21:58N 47°36' W 122°22'0 0.4
2014-Jul-23 21:33N 47°35' W 122°22'0 0.0
2014-Jul-23 21:33N 47°35' W 122°22'0 0.5
2014-Jul-23 20:33N 47°36' W 122°22'0 0.4
2014-Jul-23 20:33N 47°36' W 122°22'0 0.5
2014-Jul-23 19:33N 47°35' W 122°22'0 0.0
2014-Jul-23 19:32N 47°35' W 122°22'2 1.7
2014-Jul-23 18:33N 47°34' W 122°21'0 0.2
2014-Jul-23 18:27N 47°34' W 122°21'0 0.0
2014-Jul-23 17:32N 47°34' W 122°21'0 0.0
2014-Jul-23 16:31N 47°34' W 122°21'0 0.0
2014-Jul-23 16:31N 47°34' W 122°21'0 0.0
2014-Jul-23 15:33N 47°34' W 122°21'0 0.0
2014-Jul-23 14:33N 47°34' W 122°21'0 0.1
2014-Jul-23 14:25N 47°34' W 122°21'1 1.1
2014-Jul-23 13:33N 47°33' W 122°21'0 0.1
2014-Jul-23 13:31N 47°33' W 122°21'1 1.0
2014-Jul-23 12:33N 47°34' W 122°21'0 0.0
2014-Jul-23 12:31N 47°34' W 122°21'0 0.0
2014-Jul-23 11:33N 47°34' W 122°21'0 0.0
2014-Jul-23 11:31N 47°34' W 122°21'0 0.0
2014-Jul-23 10:33N 47°34' W 122°21'0 0.1
2014-Jul-23 10:30N 47°34' W 122°21'0 0.0
2014-Jul-23 09:33N 47°34' W 122°21'0 0.0
2014-Jul-23 09:30N 47°34' W 122°21'0 0.0
2014-Jul-23 08:33N 47°34' W 122°21'0 0.0
2014-Jul-23 08:30N 47°34' W 122°21'0 0.0
2014-Jul-23 07:33N 47°34' W 122°21'0 0.1
2014-Jul-23 07:30N 47°34' W 122°21'0 0.0
2014-Jul-23 06:33N 47°34' W 122°21'0 0.0
2014-Jul-23 06:30N 47°34' W 122°21'0 0.0
2014-Jul-23 05:44N 47°34' W 122°21'0 0.0
2014-Jul-23 05:33N 47°34' W 122°21'0 0.1
2014-Jul-23 04:34N 47°34' W 122°21'0 9.0
2014-Jul-23 04:33N 47°34' W 122°21'1 0.8
2014-Jul-23 03:33N 47°33' W 122°20'0 0.5
2014-Jul-23 03:29N 47°33' W 122°21'2 2.4
2014-Jul-23 02:34N 47°35' W 122°21'0 0.0
2014-Jul-23 02:33N 47°35' W 122°21'3 2.6
2014-Jul-23 01:33N 47°33' W 122°20'0 0.0
2014-Jul-23 01:33N 47°33' W 122°20'0 0.4
2014-Jul-23 00:33N 47°33' W 122°20'0 1.5
2014-Jul-23 00:27N 47°33' W 122°21'2 1.7
2014-Jul-22 23:33N 47°35' W 122°22'1 2.9
2014-Jul-22 23:15N 47°35' W 122°22'1 1.6
2014-Jul-22 22:33N 47°35' W 122°21'0 0.0
2014-Jul-22 22:31N 47°35' W 122°21'0 0.0
2014-Jul-22 21:33N 47°35' W 122°21'0 7.4
2014-Jul-22 21:30N 47°35' W 122°21'2 1.7
2014-Jul-22 20:33N 47°34' W 122°21'0 7.9
2014-Jul-22 20:30N 47°33' W 122°21'0 0.3
2014-Jul-22 19:33N 47°33' W 122°21'0 0.0
2014-Jul-22 19:30N 47°33' W 122°21'1 1.1
2014-Jul-22 18:33N 47°34' W 122°21'0 0.0
2014-Jul-22 18:30N 47°34' W 122°21'0 0.0
2014-Jul-22 17:32N 47°34' W 122°21'0 0.0
2014-Jul-22 17:13N 47°34' W 122°21'0 0.0
2014-Jul-22 16:18N 47°34' W 122°21'0 0.0
2014-Jul-22 16:12N 47°34' W 122°21'0 0.0
2014-Jul-22 15:28N 47°34' W 122°21'0 0.0
2014-Jul-22 15:22N 47°34' W 122°21'4 4.8
2014-Jul-22 14:34N 47°38' W 122°23'0 0.0
2014-Jul-22 14:33N 47°38' W 122°23'4 3.6
2014-Jul-22 13:30N 47°34' W 122°21'0 0.0
2014-Jul-22 13:22N 47°34' W 122°21'0 0.0
2014-Jul-22 12:33N 47°34' W 122°21'0 0.0
2014-Jul-22 12:28N 47°34' W 122°21'1 1.1
2014-Jul-22 11:33N 47°33' W 122°21'0 0.0
2014-Jul-22 11:32N 47°33' W 122°21'0 0.2
2014-Jul-22 10:33N 47°33' W 122°21'0 0.0
2014-Jul-22 10:07N 47°33' W 122°21'0 0.0
2014-Jul-22 09:30N 47°33' W 122°21'0 0.0
2014-Jul-22 09:22N 47°33' W 122°21'0 0.0
2014-Jul-22 08:27N 47°33' W 122°21'0 0.1
2014-Jul-22 08:17N 47°33' W 122°21'0 0.0
2014-Jul-22 07:33N 47°33' W 122°21'0 0.0
2014-Jul-22 07:30N 47°33' W 122°21'0 0.0
2014-Jul-22 06:33N 47°33' W 122°21'1 1.4
2014-Jul-22 05:33N 47°35' W 122°22'0 5.5
2014-Jul-22 05:29N 47°35' W 122°22'1 0.1
2014-Jul-21 18:09N 47°34' W 122°21'0 1.2
2014-Jul-21 18:06N 47°34' W 122°21'0 0.2
2014-Jul-21 17:33N 47°34' W 122°21'0 3.3
2014-Jul-21 17:31N 47°34' W 122°21'4 4.2
2014-Jul-21 16:33N 47°35' W 122°27'0 8.1
2014-Jul-21 16:30N 47°35' W 122°27'0 0.1
2014-Jul-21 15:33N 47°35' W 122°27'1 9.8
2014-Jul-21 15:29N 47°35' W 122°26'4 4.7
2014-Jul-21 14:33N 47°33' W 122°20'0 4.9
2014-Jul-21 14:30N 47°33' W 122°21'1 0.9
2014-Jul-21 13:33N 47°34' W 122°21'0 0.0
2014-Jul-21 13:29N 47°34' W 122°21'0 0.0
2014-Jul-21 12:33N 47°34' W 122°21'0 0.0
2014-Jul-21 12:30N 47°34' W 122°21'0 0.0
2014-Jul-21 11:33N 47°34' W 122°21'0 0.1
2014-Jul-21 11:28N 47°34' W 122°21'0 0.0
2014-Jul-21 10:33N 47°34' W 122°21'0 0.0
2014-Jul-21 09:33N 47°34' W 122°21'0 0.0
2014-Jul-21 08:47N 47°34' W 122°21'0 0.0
2014-Jul-21 08:33N 47°34' W 122°21'0 0.0
2014-Jul-21 07:57N 47°34' W 122°21'0 0.0
2014-Jul-21 07:33N 47°34' W 122°21'0 0.1
2014-Jul-21 07:31N 47°34' W 122°21'0 0.0
2014-Jul-21 06:31N 47°34' W 122°21'0 0.1
2014-Jul-21 06:28N 47°34' W 122°21'1 1.2
2014-Jul-21 05:43N 47°33' W 122°21'0 0.2
2014-Jul-21 05:33N 47°33' W 122°21'4 4.0
2014-Jul-21 04:33N 47°36' W 122°25'1 7.1
2014-Jul-21 04:23N 47°35' W 122°27'3 3.3
2014-Jul-21 03:33N 47°34' W 122°30'110.1
2014-Jul-21 03:27N 47°34' W 122°29'5 0.2
2014-Jul-20 00:42N 47°34' W 122°21'1 5.9
2014-Jul-20 00:33N 47°35' W 122°22'0 8.6
2014-Jul-20 00:32N 47°35' W 122°22'1 1.1
2014-Jul-19 23:33N 47°34' W 122°21'0 2.9
2014-Jul-19 23:32N 47°34' W 122°21'2 1.6
2014-Jul-19 22:33N 47°35' W 122°22'0 9.2
2014-Jul-19 22:32N 47°35' W 122°22'1 1.5
2014-Jul-19 21:33N 47°34' W 122°21'0 4.2
2014-Jul-19 21:32N 47°34' W 122°21'2 1.9
2014-Jul-19 20:33N 47°32' W 122°20'0 4.3
2014-Jul-19 20:32N 47°32' W 122°20'3 3.2
2014-Jul-19 19:33N 47°35' W 122°22'0 5.9
2014-Jul-19 19:31N 47°35' W 122°22'2 2.5
2014-Jul-19 18:33N 47°33' W 122°20'0 0.0
2014-Jul-19 18:32N 47°33' W 122°20'0 0.4
2014-Jul-19 17:33N 47°33' W 122°20'0 0.2
2014-Jul-19 17:32N 47°33' W 122°20'2 2.5
2014-Jul-19 16:33N 47°35' W 122°21'0 0.0
2014-Jul-19 16:31N 47°35' W 122°21'1 1.3
2014-Jul-19 15:33N 47°34' W 122°21'0 0.0
2014-Jul-19 15:31N 47°34' W 122°21'0 0.0
2014-Jul-19 14:33N 47°34' W 122°21'0 0.0
2014-Jul-19 14:25N 47°34' W 122°21'0 0.0
2014-Jul-19 13:33N 47°34' W 122°21'0 0.2
2014-Jul-19 13:31N 47°34' W 122°21'0 0.0
2014-Jul-19 12:33N 47°34' W 122°21'0 0.0
2014-Jul-19 12:26N 47°34' W 122°21'0 0.0
2014-Jul-19 11:33N 47°34' W 122°21'0 0.0
2014-Jul-19 11:26N 47°34' W 122°21'0 0.0
2014-Jul-19 10:33N 47°34' W 122°21'0 0.1
2014-Jul-19 10:30N 47°34' W 122°21'0 0.0
2014-Jul-19 09:34N 47°34' W 122°21'0 0.1
2014-Jul-19 09:30N 47°34' W 122°21'0 0.0
2014-Jul-19 08:33N 47°34' W 122°21'0 0.1
2014-Jul-19 08:30N 47°34' W 122°21'0 0.0
2014-Jul-19 07:33N 47°34' W 122°21'0 0.1
2014-Jul-19 07:30N 47°34' W 122°21'1 1.0
2014-Jul-19 06:33N 47°35' W 122°22'0 0.9
2014-Jul-19 06:30N 47°35' W 122°22'2 2.4
2014-Jul-19 05:40N 47°33' W 122°20'0 0.5
2014-Jul-19 05:33N 47°33' W 122°20'2 1.9
2014-Jul-19 04:33N 47°35' W 122°22'0 5.1
2014-Jul-19 04:30N 47°35' W 122°22'2 2.6
2014-Jul-19 03:33N 47°33' W 122°20'1 9.8
2014-Jul-19 03:30N 47°33' W 122°21'1 0.8
2014-Jul-19 02:34N 47°33' W 122°20'0 0.7
2014-Jul-19 02:30N 47°33' W 122°20'1 0.7
2014-Jul-19 01:33N 47°33' W 122°21'0 6.3
2014-Jul-19 01:30N 47°34' W 122°21'0 0.5
2014-Jul-19 00:33N 47°33' W 122°20'0 0.0
2014-Jul-19 00:30N 47°33' W 122°20'1 1.1
2014-Jul-18 23:34N 47°34' W 122°21'0 0.1
2014-Jul-18 23:30N 47°34' W 122°21'0 0.0
2014-Jul-18 22:33N 47°34' W 122°21'0 0.1
2014-Jul-18 22:30N 47°34' W 122°21'0 0.0
2014-Jul-18 21:33N 47°34' W 122°21'0 0.0
2014-Jul-18 21:29N 47°34' W 122°21'0 0.0
2014-Jul-18 20:33N 47°34' W 122°21'0 0.0
2014-Jul-18 20:13N 47°34' W 122°21'1 1.5
2014-Jul-18 19:33N 47°33' W 122°21'0 0.1
2014-Jul-18 19:28N 47°33' W 122°21'2 2.5
2014-Jul-18 18:33N 47°35' W 122°21'0 0.0
2014-Jul-18 18:33N 47°35' W 122°21'1 0.6
2014-Jul-18 17:34N 47°35' W 122°22'0 0.0
2014-Jul-18 17:33N 47°35' W 122°22'0 0.0
2014-Jul-18 16:33N 47°35' W 122°22'0 0.0
2014-Jul-18 16:33N 47°35' W 122°22'2 2.4
2014-Jul-18 15:33N 47°33' W 122°21'0 0.1
2014-Jul-18 15:28N 47°33' W 122°21'2 2.4
2014-Jul-18 14:34N 47°35' W 122°21'1 0.1
2014-Jul-17 23:46N 47°34' W 122°21'1 5.3
2014-Jul-17 23:33N 47°33' W 122°20'0 0.2
2014-Jul-17 23:31N 47°33' W 122°20'0 0.0
2014-Jul-17 22:33N 47°33' W 122°20'0 0.0
2014-Jul-17 22:31N 47°33' W 122°20'1 0.6
2014-Jul-17 21:34N 47°34' W 122°21'0 7.4
2014-Jul-17 21:30N 47°34' W 122°21'2 2.3
2014-Jul-17 20:33N 47°36' W 122°23'0 8.4
2014-Jul-17 20:31N 47°36' W 122°22'2 1.9
2014-Jul-17 19:33N 47°34' W 122°21'0 0.0
2014-Jul-17 18:33N 47°34' W 122°21'0 0.3
2014-Jul-17 18:05N 47°34' W 122°21'1 1.4
2014-Jul-17 17:33N 47°35' W 122°22'0 6.1
2014-Jul-17 17:30N 47°35' W 122°22'6 6.6
2014-Jul-17 16:33N 47°41' W 122°25'0 8.0
2014-Jul-17 16:30N 47°40' W 122°24'2 2.2
2014-Jul-17 15:33N 47°39' W 122°22'0 0.0
2014-Jul-17 15:29N 47°39' W 122°22'3 2.7
2014-Jul-17 14:33N 47°41' W 122°25'1 9.6
2014-Jul-17 14:29N 47°40' W 122°26'7 7.1
2014-Jul-17 13:33N 47°34' W 122°21'0 6.1
2014-Jul-17 13:29N 47°34' W 122°21'0 0.0
2014-Jul-17 02:43N 47°34' W 122°21'1 6.8
2014-Jul-17 02:33N 47°35' W 122°22'0 7.2
2014-Jul-17 02:33N 47°35' W 122°22'2 2.0
2014-Jul-17 01:33N 47°33' W 122°21'0 0.0
2014-Jul-17 01:33N 47°33' W 122°21'3 2.9
2014-Jul-17 00:33N 47°36' W 122°23'0 0.0
2014-Jul-17 00:33N 47°36' W 122°23'2 2.1
2014-Jul-16 23:33N 47°34' W 122°21'0 0.0
2014-Jul-16 23:18N 47°34' W 122°21'1 1.9
2014-Jul-16 22:33N 47°33' W 122°20'0 0.0
2014-Jul-16 22:33N 47°33' W 122°20'0 0.0
2014-Jul-16 21:34N 47°33' W 122°20'0 0.0
2014-Jul-16 21:33N 47°33' W 122°20'0 0.2
2014-Jul-16 20:33N 47°33' W 122°20'0 0.0
2014-Jul-16 20:33N 47°33' W 122°20'0 0.0
2014-Jul-16 19:33N 47°33' W 122°20'0 0.0
2014-Jul-16 19:33N 47°33' W 122°20'1 0.1
2014-Jul-16 04:56N 47°34' W 122°21'0 1.2
2014-Jul-16 04:33N 47°34' W 122°21'0 2.8
2014-Jul-16 04:31N 47°34' W 122°21'0 0.4
2014-Jul-16 03:33N 47°35' W 122°22'0 5.3
2014-Jul-16 03:31N 47°35' W 122°22'0 0.5
2014-Jul-16 02:33N 47°35' W 122°21'0 0.0
2014-Jul-16 02:31N 47°35' W 122°21'2 2.3
2014-Jul-16 01:33N 47°33' W 122°20'0 4.3
2014-Jul-16 01:31N 47°33' W 122°20'1 1.3
2014-Jul-16 00:33N 47°34' W 122°21'0 0.0
2014-Jul-16 00:31N 47°34' W 122°21'0 0.0
2014-Jul-15 23:33N 47°34' W 122°21'0 0.2
2014-Jul-15 23:31N 47°34' W 122°21'1 0.9
2014-Jul-15 22:34N 47°33' W 122°21'0 0.0
2014-Jul-15 22:31N 47°33' W 122°21'1 0.4
2014-Jul-15 20:36N 47°34' W 122°21'011.2
2014-Jul-15 20:33N 47°34' W 122°21'0 8.3
2014-Jul-15 20:31N 47°33' W 122°21'3 2.6
2014-Jul-15 19:33N 47°36' W 122°22'0 2.4
2014-Jul-15 19:31N 47°36' W 122°22'4 3.7
2014-Jul-15 18:33N 47°32' W 122°20'0 1.0
2014-Jul-15 18:25N 47°33' W 122°20'4 5.1
2014-Jul-15 17:33N 47°36' W 122°25'0 6.0
2014-Jul-15 17:30N 47°36' W 122°25'5 5.5
2014-Jul-15 16:33N 47°35' W 122°33'0 7.3
2014-Jul-15 16:30N 47°36' W 122°33'6 6.6
2014-Jul-15 15:33N 47°32' W 122°41'0 0.8
2014-Jul-15 15:30N 47°32' W 122°41'0 0.5
2014-Jul-15 14:34N 47°32' W 122°40'0 0.0
2014-Jul-15 14:20N 47°32' W 122°40'0 0.0
2014-Jul-15 13:33N 47°32' W 122°40'0 0.0
2014-Jul-15 13:25N 47°32' W 122°40'0 0.0
2014-Jul-15 12:33N 47°32' W 122°40'0 0.0
2014-Jul-15 12:20N 47°32' W 122°40'0 0.0
2014-Jul-15 11:33N 47°32' W 122°40'0 0.0
2014-Jul-15 11:20N 47°32' W 122°40'0 0.0
2014-Jul-15 10:33N 47°32' W 122°40'0 0.0
2014-Jul-15 10:30N 47°32' W 122°40'3 3.0
2014-Jul-15 09:33N 47°34' W 122°37'0 9.0
2014-Jul-15 09:30N 47°34' W 122°36'6 6.5
2014-Jul-15 08:35N 47°36' W 122°28'013.1
2014-Jul-15 08:33N 47°37' W 122°28'10 9.6
2014-Jul-15 07:33N 47°46' W 122°27'1 9.0
2014-Jul-15 07:30N 47°47' W 122°27'3 2.9
2014-Jul-15 06:34N 47°44' W 122°26'1 8.1
2014-Jul-15 06:29N 47°44' W 122°26'7 7.9
2014-Jul-15 05:34N 47°37' W 122°23'1 7.4
2014-Jul-15 05:29N 47°36' W 122°23'2 2.7
2014-Jul-15 04:34N 47°34' W 122°21'1 7.0
2014-Jul-15 04:29N 47°34' W 122°21'  

Dump ship's entire track history